TimeCST,TemperatureF,Dew PointF,Humidity,Sea Level PressureIn,VisibilityMPH,Wind Direction,Wind SpeedMPH,Gust SpeedMPH,PrecipitationIn,Events,Conditions,WindDirDegrees,DateUTC
12:53 AM,15.1,1.9,56,30.41,10.0,NNE,5.8,-,N/A,,Overcast,30,2013-01-22 06:53:00
1:53 AM,14.0,1.0,56,30.40,10.0,NNE,6.9,-,N/A,,Overcast,30,2013-01-22 07:53:00
2:53 AM,15.1,-0.0,51,30.42,10.0,NE,4.6,-,N/A,,Overcast,40,2013-01-22 08:53:00
3:53 AM,14.0,-0.9,52,30.40,10.0,NE,5.8,-,N/A,,Overcast,50,2013-01-22 09:53:00
4:53 AM,12.9,1.0,59,30.40,10.0,NE,5.8,-,N/A,,Partly Cloudy,40,2013-01-22 10:53:00
5:53 AM,12.9,1.0,59,30.41,10.0,ENE,6.9,-,N/A,,Clear,70,2013-01-22 11:53:00
6:53 AM,12.9,1.0,59,30.40,10.0,East,8.1,-,N/A,,Scattered Clouds,100,2013-01-22 12:53:00
7:53 AM,14.0,1.0,56,30.42,10.0,East,9.2,-,N/A,,Mostly Cloudy,90,2013-01-22 13:53:00
8:53 AM,15.1,-0.0,51,30.43,10.0,East,10.4,-,N/A,,Mostly Cloudy,90,2013-01-22 14:53:00
9:53 AM,17.1,-0.9,45,30.45,10.0,ENE,9.2,-,N/A,,Overcast,70,2013-01-22 15:53:00
10:53 AM,18.0,-2.0,41,30.45,10.0,East,9.2,-,N/A,,Mostly Cloudy,80,2013-01-22 16:53:00
11:02 AM,19.4,-0.4,42,30.40,10.0,East,8.1,-,N/A,,Mostly Cloudy,100,2013-01-22 17:02:00
11:53 AM,21.0,-0.9,38,30.42,10.0,ESE,9.2,-,N/A,,Overcast,110,2013-01-22 17:53:00
12:53 PM,23.0,1.0,39,30.37,10.0,ESE,9.2,-,N/A,,Mostly Cloudy,120,2013-01-22 18:53:00
1:53 PM,26.1,3.0,37,30.35,10.0,ESE,6.9,-,N/A,,Mostly Cloudy,120,2013-01-22 19:53:00
2:53 PM,27.0,3.0,36,30.31,10.0,ESE,8.1,-,N/A,,Mostly Cloudy,110,2013-01-22 20:53:00
3:53 PM,27.0,3.9,37,30.30,10.0,East,8.1,-,N/A,,Mostly Cloudy,100,2013-01-22 21:53:00
4:53 PM,26.1,5.0,41,30.31,10.0,East,4.6,-,N/A,,Mostly Cloudy,90,2013-01-22 22:53:00
5:53 PM,24.1,5.0,44,30.32,10.0,East,8.1,-,N/A,,Scattered Clouds,80,2013-01-22 23:53:00
6:53 PM,23.0,6.1,48,30.33,10.0,East,6.9,-,N/A,,Clear,80,2013-01-23 00:53:00
7:53 PM,21.9,5.0,48,30.33,10.0,East,10.4,-,N/A,,Clear,90,2013-01-23 01:53:00
8:53 PM,21.0,6.1,53,30.33,10.0,East,8.1,-,N/A,,Clear,90,2013-01-23 02:53:00
9:53 PM,19.0,6.1,57,30.32,10.0,ESE,8.1,-,N/A,,Clear,120,2013-01-23 03:53:00
10:53 PM,19.0,6.1,57,30.32,10.0,SE,9.2,-,N/A,,Clear,130,2013-01-23 04:53:00
11:53 PM,19.0,6.1,57,30.31,10.0,ESE,10.4,-,N/A,,Clear,120,2013-01-23 05:53:00